PWSweather.com
Personal Weather Stations
Station Observations
WESTON01
WestonSuperMareGB BS22 8RT

WestonSuperMareGB BS22 8RT

Lat: 51.351508, Lon: -2.933373

Elevation: 15

Station Type: Fine Offset WH1080

http://www.westonweather.co.uk

High Low Average
Temperature 71.3°F21.8°C 54.0°F12.2°C 62.1°F16.7°C
Dew Point 54.0°F12.2°C 44.1°F6.7°C 49.3°F9.6°C
Winds 11.5 mph 18.5 kmh Calm Calm 5.0 mph SW8.0 kmh SW
Wind Gusts 17.6 mph28.3 kmh -- 9.0 mph14.5 kmh
Humidity 74% 51% 63%
Pressure 30.12 in1020.0 mb 29.92 in1013.2 mb -
Precipitation 0.00 in0.0 mm - -
Hour Temp Dew Point Humidity Winds Wind Gusts Pressure Precip Precip Rate Daily Precip Total
12:00 AM 56.9°F13.8°C 45.7°F7.6°C 66% Calm Calm -- 30.12 in1020.0 mb 0.00 in0.0 mm 0.00 in0.0 mm 0.00 in0.0 mm
12:05 AM 56.6°F13.7°C 45.3°F7.4°C 66% Calm Calm -- 30.12 in1020.0 mb 0.00 in0.0 mm 0.00 in0.0 mm 0.00 in0.0 mm
12:10 AM 56.4°F13.6°C 45.2°F7.3°C 66% Calm Calm -- 30.12 in1020.0 mb 0.00 in0.0 mm 0.00 in0.0 mm 0.00 in0.0 mm
12:15 AM 56.2°F13.4°C 45.0°F7.2°C 66% Calm Calm -- 30.12 in1020.0 mb 0.00 in0.0 mm 0.00 in0.0 mm 0.00 in0.0 mm
12:20 AM 55.8°F13.2°C 44.7°F7.1°C 66% Calm Calm -- 30.12 in1020.0 mb 0.00 in0.0 mm 0.00 in0.0 mm 0.00 in0.0 mm
12:25 AM 55.7°F13.2°C 44.5°F6.9°C 66% Calm Calm -- 30.12 in1020.0 mb 0.00 in0.0 mm 0.00 in0.0 mm 0.00 in0.0 mm
12:30 AM 55.5°F13.1°C 44.7°F7.1°C 67% Calm Calm -- 30.12 in1020.0 mb 0.00 in0.0 mm 0.00 in0.0 mm 0.00 in0.0 mm
12:35 AM 55.3°F12.9°C 44.5°F6.9°C 67% Calm Calm -- 30.12 in1020.0 mb 0.00 in0.0 mm 0.00 in0.0 mm 0.00 in0.0 mm
12:40 AM 55.3°F12.9°C 44.5°F6.9°C 67% Calm Calm -- 30.12 in1020.0 mb 0.00 in0.0 mm 0.00 in0.0 mm 0.00 in0.0 mm
12:45 AM 54.8°F12.7°C 44.4°F6.9°C 68% Calm Calm -- 30.12 in1020.0 mb 0.00 in0.0 mm 0.00 in0.0 mm 0.00 in0.0 mm
12:50 AM 54.6°F12.6°C 44.2°F6.8°C 68% Calm Calm -- 30.12 in1020.0 mb 0.00 in0.0 mm 0.00 in0.0 mm 0.00 in0.0 mm
12:55 AM 54.4°F12.4°C 44.1°F6.7°C 68% Calm Calm -- 30.12 in1020.0 mb 0.00 in0.0 mm 0.00 in0.0 mm 0.00 in0.0 mm
01:00 AM 54.2°F12.3°C 44.3°F6.8°C 69% Calm Calm -- 30.12 in1020.0 mb 0.00 in0.0 mm 0.00 in0.0 mm 0.00 in0.0 mm
01:05 AM 54.2°F12.3°C 44.3°F6.8°C 69% Calm Calm -- 30.12 in1020.0 mb 0.00 in0.0 mm 0.00 in0.0 mm 0.00 in0.0 mm
01:10 AM 54.2°F12.3°C 44.3°F6.8°C 69% 0.3 mph NW0.5 kmh NW 2.7 mph4.3 kmh 30.09 in1019.0 mb 0.00 in0.0 mm 0.00 in0.0 mm 0.00 in0.0 mm
01:15 AM 54.0°F12.2°C 44.5°F6.9°C 70% 0.5 mph NW0.8 kmh NW 2.7 mph4.3 kmh 30.09 in1019.0 mb 0.00 in0.0 mm 0.00 in0.0 mm 0.00 in0.0 mm
01:20 AM 54.2°F12.3°C 44.7°F7.1°C 70% 0.6 mph W1.0 kmh W 1.8 mph2.9 kmh 30.12 in1020.0 mb 0.00 in0.0 mm 0.00 in0.0 mm 0.00 in0.0 mm
01:25 AM 54.2°F12.3°C 44.7°F7.1°C 70% 1.0 mph WSW1.6 kmh WSW 2.1 mph3.4 kmh 30.12 in1020.0 mb 0.00 in0.0 mm 0.00 in0.0 mm 0.00 in0.0 mm
01:30 AM 54.2°F12.3°C 44.7°F7.1°C 70% 1.7 mph SW2.7 kmh SW 4.5 mph7.2 kmh 30.12 in1020.0 mb 0.00 in0.0 mm 0.00 in0.0 mm 0.00 in0.0 mm
01:35 AM 54.4°F12.4°C 44.8°F7.1°C 70% 1.4 mph SW2.3 kmh SW 4.5 mph7.2 kmh 30.09 in1019.0 mb 0.00 in0.0 mm 0.00 in0.0 mm 0.00 in0.0 mm
01:40 AM 54.8°F12.7°C 45.2°F7.3°C 70% 2.0 mph SSW3.2 kmh SSW 4.2 mph6.8 kmh 30.09 in1019.0 mb 0.00 in0.0 mm 0.00 in0.0 mm 0.00 in0.0 mm
01:45 AM 54.8°F12.7°C 45.2°F7.3°C 70% 3.4 mph SW5.5 kmh SW 4.8 mph7.7 kmh 30.09 in1019.0 mb 0.00 in0.0 mm 0.00 in0.0 mm 0.00 in0.0 mm
01:50 AM 55.1°F12.8°C 45.9°F7.7°C 71% 3.6 mph SSW5.8 kmh SSW 4.8 mph7.7 kmh 30.09 in1019.0 mb 0.00 in0.0 mm 0.00 in0.0 mm 0.00 in0.0 mm
01:55 AM 55.1°F12.8°C 45.9°F7.7°C 71% 2.3 mph SSW3.7 kmh SSW 4.8 mph7.7 kmh 30.09 in1019.0 mb 0.00 in0.0 mm 0.00 in0.0 mm 0.00 in0.0 mm
02:00 AM 55.1°F12.8°C 45.5°F7.5°C 70% 1.1 mph SW1.8 kmh SW 4.2 mph6.8 kmh 30.09 in1019.0 mb 0.00 in0.0 mm 0.00 in0.0 mm 0.00 in0.0 mm
02:05 AM 55.0°F12.8°C 45.3°F7.4°C 70% 1.7 mph W2.7 kmh W 4.2 mph6.8 kmh 30.09 in1019.0 mb 0.00 in0.0 mm 0.00 in0.0 mm 0.00 in0.0 mm
02:10 AM 55.0°F12.8°C 45.7°F7.6°C 71% 2.6 mph WNW4.2 kmh WNW 4.5 mph7.2 kmh 30.09 in1019.0 mb 0.00 in0.0 mm 0.00 in0.0 mm 0.00 in0.0 mm
02:15 AM 55.0°F12.8°C 45.3°F7.4°C 70% 1.2 mph WNW1.9 kmh WNW 4.5 mph7.2 kmh 30.09 in1019.0 mb 0.00 in0.0 mm 0.00 in0.0 mm 0.00 in0.0 mm
02:20 AM 55.0°F12.8°C 45.7°F7.6°C 71% 0.5 mph SW0.8 kmh SW 3.9 mph6.3 kmh 30.12 in1020.0 mb 0.00 in0.0 mm 0.00 in0.0 mm 0.00 in0.0 mm
02:25 AM 55.1°F12.8°C 45.9°F7.7°C 71% 1.0 mph SW1.6 kmh SW 3.9 mph6.3 kmh 30.12 in1020.0 mb 0.00 in0.0 mm 0.00 in0.0 mm 0.00 in0.0 mm
02:30 AM 55.5°F13.1°C 46.2°F7.9°C 71% 1.5 mph SW2.4 kmh SW 3.6 mph5.8 kmh 30.12 in1020.0 mb 0.00 in0.0 mm 0.00 in0.0 mm 0.00 in0.0 mm
02:35 AM 55.5°F13.1°C 46.2°F7.9°C 71% 1.7 mph SW2.7 kmh SW 3.9 mph6.3 kmh 30.12 in1020.0 mb 0.00 in0.0 mm 0.00 in0.0 mm 0.00 in0.0 mm
02:40 AM 55.5°F13.1°C 45.9°F7.7°C 70% 1.4 mph SSW2.3 kmh SSW 3.9 mph6.3 kmh 30.12 in1020.0 mb 0.00 in0.0 mm 0.00 in0.0 mm 0.00 in0.0 mm
02:45 AM 55.7°F13.2°C 46.0°F7.8°C 70% 0.7 mph NE1.1 kmh NE 3.3 mph5.3 kmh 30.12 in1020.0 mb 0.00 in0.0 mm 0.00 in0.0 mm 0.00 in0.0 mm
02:50 AM 55.7°F13.2°C 46.0°F7.8°C 70% 0.5 mph NE0.8 kmh NE 3.3 mph5.3 kmh 30.12 in1020.0 mb 0.00 in0.0 mm 0.00 in0.0 mm 0.00 in0.0 mm
02:55 AM 55.7°F13.2°C 46.0°F7.8°C 70% 0.1 mph NE0.2 kmh NE 1.8 mph2.9 kmh 30.12 in1020.0 mb 0.00 in0.0 mm 0.00 in0.0 mm 0.00 in0.0 mm
03:00 AM 55.5°F13.1°C 45.9°F7.7°C 70% 0.5 mph N0.8 kmh N 3.6 mph5.8 kmh 30.12 in1020.0 mb 0.00 in0.0 mm 0.00 in0.0 mm 0.00 in0.0 mm
03:05 AM 55.5°F13.1°C 45.9°F7.7°C 70% 1.1 mph N1.8 kmh N 3.6 mph5.8 kmh 30.12 in1020.0 mb 0.00 in0.0 mm 0.00 in0.0 mm 0.00 in0.0 mm
03:10 AM 55.5°F13.1°C 46.2°F7.9°C 71% 1.1 mph NW1.8 kmh NW 7.7 mph12.4 kmh 30.09 in1019.0 mb 0.00 in0.0 mm 0.00 in0.0 mm 0.00 in0.0 mm
03:15 AM 55.8°F13.2°C 46.2°F7.9°C 70% 3.2 mph SW5.1 kmh SW 7.7 mph12.4 kmh 30.09 in1019.0 mb 0.00 in0.0 mm 0.00 in0.0 mm 0.00 in0.0 mm
03:20 AM 56.2°F13.4°C 46.6°F8.1°C 70% 4.4 mph SSW7.1 kmh SSW 7.7 mph12.4 kmh 30.09 in1019.0 mb 0.00 in0.0 mm 0.00 in0.0 mm 0.00 in0.0 mm
03:25 AM 56.6°F13.7°C 46.9°F8.3°C 70% 3.4 mph S5.5 kmh S 5.7 mph9.2 kmh 30.09 in1019.0 mb 0.00 in0.0 mm 0.00 in0.0 mm 0.00 in0.0 mm
03:30 AM 56.6°F13.7°C 46.5°F8.1°C 69% 3.7 mph S6.0 kmh S 5.7 mph9.2 kmh 30.09 in1019.0 mb 0.00 in0.0 mm 0.00 in0.0 mm 0.00 in0.0 mm
03:35 AM 56.8°F13.8°C 46.7°F8.2°C 69% 3.1 mph S5.0 kmh S 4.5 mph7.2 kmh 30.09 in1019.0 mb 0.00 in0.0 mm 0.00 in0.0 mm 0.00 in0.0 mm
03:40 AM 56.9°F13.8°C 46.9°F8.3°C 69% 3.7 mph SSW6.0 kmh SSW 7.4 mph11.9 kmh 30.09 in1019.0 mb 0.00 in0.0 mm 0.00 in0.0 mm 0.00 in0.0 mm
03:45 AM 57.3°F14.1°C 47.2°F8.4°C 69% 5.0 mph SSW8.0 kmh SSW 8.0 mph12.9 kmh 30.09 in1019.0 mb 0.00 in0.0 mm 0.00 in0.0 mm 0.00 in0.0 mm
03:50 AM 57.3°F14.1°C 46.8°F8.2°C 68% 5.7 mph SSW9.2 kmh SSW 14.0 mph22.5 kmh 30.09 in1019.0 mb 0.00 in0.0 mm 0.00 in0.0 mm 0.00 in0.0 mm
03:55 AM 57.7°F14.3°C 47.2°F8.4°C 68% 5.4 mph SSW8.7 kmh SSW 14.0 mph22.5 kmh 30.09 in1019.0 mb 0.00 in0.0 mm 0.00 in0.0 mm 0.00 in0.0 mm
04:00 AM 57.7°F14.3°C 47.2°F8.4°C 68% 4.8 mph SSW7.7 kmh SSW 6.2 mph10.0 kmh 30.09 in1019.0 mb 0.00 in0.0 mm 0.00 in0.0 mm 0.00 in0.0 mm
04:05 AM 57.7°F14.3°C 47.2°F8.4°C 68% 4.1 mph SSW6.6 kmh SSW 6.2 mph10.0 kmh 30.09 in1019.0 mb 0.00 in0.0 mm 0.00 in0.0 mm 0.00 in0.0 mm
04:10 AM 57.7°F14.3°C 47.2°F8.4°C 68% 2.8 mph S4.5 kmh S 4.8 mph7.7 kmh 30.09 in1019.0 mb 0.00 in0.0 mm 0.00 in0.0 mm 0.00 in0.0 mm
04:15 AM 57.5°F14.2°C 47.0°F8.3°C 68% 2.4 mph S3.9 kmh S 3.9 mph6.3 kmh 30.09 in1019.0 mb 0.00 in0.0 mm 0.00 in0.0 mm 0.00 in0.0 mm
04:20 AM 57.3°F14.1°C 46.8°F8.2°C 68% 1.6 mph S2.6 kmh S 3.9 mph6.3 kmh 30.09 in1019.0 mb 0.00 in0.0 mm 0.00 in0.0 mm 0.00 in0.0 mm
04:25 AM 57.3°F14.1°C 46.8°F8.2°C 68% 0.8 mph SE1.3 kmh SE 2.1 mph3.4 kmh 30.09 in1019.0 mb 0.00 in0.0 mm 0.00 in0.0 mm 0.00 in0.0 mm
04:30 AM 56.9°F13.8°C 46.5°F8.1°C 68% 0.5 mph ESE0.8 kmh ESE 1.8 mph2.9 kmh 30.09 in1019.0 mb 0.00 in0.0 mm 0.00 in0.0 mm 0.00 in0.0 mm
04:35 AM 56.8°F13.8°C 46.3°F7.9°C 68% Calm Calm -- 30.09 in1019.0 mb 0.00 in0.0 mm 0.00 in0.0 mm 0.00 in0.0 mm
04:40 AM 56.6°F13.7°C 46.1°F7.8°C 68% 1.0 mph WNW1.6 kmh WNW 4.8 mph7.7 kmh 30.09 in1019.0 mb 0.00 in0.0 mm 0.00 in0.0 mm 0.00 in0.0 mm
04:45 AM 56.6°F13.7°C 46.5°F8.1°C 69% 2.1 mph SSW3.4 kmh SSW 4.8 mph7.7 kmh 30.09 in1019.0 mb 0.00 in0.0 mm 0.00 in0.0 mm 0.00 in0.0 mm
04:50 AM 56.6°F13.7°C 46.5°F8.1°C 69% 1.4 mph S2.3 kmh S 3.9 mph6.3 kmh 30.09 in1019.0 mb 0.00 in0.0 mm 0.00 in0.0 mm 0.00 in0.0 mm
04:55 AM 56.6°F13.7°C 46.5°F8.1°C 69% 0.2 mph ESE0.3 kmh ESE 1.2 mph1.9 kmh 30.09 in1019.0 mb 0.00 in0.0 mm 0.00 in0.0 mm 0.00 in0.0 mm
05:00 AM 56.8°F13.8°C 46.7°F8.2°C 69% 0.2 mph E0.3 kmh E 1.2 mph1.9 kmh 30.09 in1019.0 mb 0.00 in0.0 mm 0.00 in0.0 mm 0.00 in0.0 mm
05:05 AM 56.9°F13.8°C 46.9°F8.3°C 69% 0.1 mph E0.2 kmh E 1.2 mph1.9 kmh 30.09 in1019.0 mb 0.00 in0.0 mm 0.00 in0.0 mm 0.00 in0.0 mm
05:10 AM 56.9°F13.8°C 46.9°F8.3°C 69% Calm Calm -- 30.09 in1019.0 mb 0.00 in0.0 mm 0.00 in0.0 mm 0.00 in0.0 mm
05:15 AM 56.9°F13.8°C 47.2°F8.4°C 70% 0.7 mph S1.1 kmh S 3.3 mph5.3 kmh 30.09 in1019.0 mb 0.00 in0.0 mm 0.00 in0.0 mm 0.00 in0.0 mm
05:20 AM 57.1°F13.9°C 47.4°F8.6°C 70% 1.0 mph SSE1.6 kmh SSE 3.3 mph5.3 kmh 30.09 in1019.0 mb 0.00 in0.0 mm 0.00 in0.0 mm 0.00 in0.0 mm
05:25 AM 58.2°F14.6°C 48.4°F9.1°C 70% 2.0 mph S3.2 kmh S 3.9 mph6.3 kmh 30.09 in1019.0 mb 0.00 in0.0 mm 0.00 in0.0 mm 0.00 in0.0 mm
05:30 AM 58.5°F14.7°C 48.4°F9.1°C 69% 2.6 mph S4.2 kmh S 4.2 mph6.8 kmh 30.09 in1019.0 mb 0.00 in0.0 mm 0.00 in0.0 mm 0.00 in0.0 mm
05:35 AM 58.9°F14.9°C 48.8°F9.3°C 69% 1.9 mph S3.1 kmh S 4.2 mph6.8 kmh 30.09 in1019.0 mb 0.00 in0.0 mm 0.00 in0.0 mm 0.00 in0.0 mm
05:40 AM 59.3°F15.2°C 48.7°F9.3°C 68% 2.3 mph SSW3.7 kmh SSW 5.4 mph8.7 kmh 30.09 in1019.0 mb 0.00 in0.0 mm 0.00 in0.0 mm 0.00 in0.0 mm
05:45 AM 59.3°F15.2°C 48.7°F9.3°C 68% 3.3 mph S5.3 kmh S 5.4 mph8.7 kmh 30.09 in1019.0 mb 0.00 in0.0 mm 0.00 in0.0 mm 0.00 in0.0 mm
05:50 AM 59.3°F15.2°C 48.3°F9.1°C 67% 3.0 mph S4.8 kmh S 4.5 mph7.2 kmh 30.09 in1019.0 mb 0.00 in0.0 mm 0.00 in0.0 mm 0.00 in0.0 mm
05:55 AM 59.6°F15.3°C 48.7°F9.3°C 67% 3.3 mph S5.3 kmh S 4.8 mph7.7 kmh 30.09 in1019.0 mb 0.00 in0.0 mm 0.00 in0.0 mm 0.00 in0.0 mm
06:00 AM 60.2°F15.7°C 49.2°F9.6°C 67% 3.8 mph S6.1 kmh S 5.1 mph8.2 kmh 30.09 in1019.0 mb 0.00 in0.0 mm 0.00 in0.0 mm 0.00 in0.0 mm
06:05 AM 60.3°F15.7°C 48.9°F9.4°C 66% 4.0 mph S6.4 kmh S 6.5 mph10.5 kmh 30.09 in1019.0 mb 0.00 in0.0 mm 0.00 in0.0 mm 0.00 in0.0 mm
06:10 AM 60.7°F15.9°C 49.3°F9.6°C 66% 4.1 mph SSW6.6 kmh SSW 6.5 mph10.5 kmh 30.09 in1019.0 mb 0.00 in0.0 mm 0.00 in0.0 mm 0.00 in0.0 mm
06:15 AM 61.1°F16.2°C 49.6°F9.8°C 66% 4.1 mph S6.6 kmh S 5.4 mph8.7 kmh 30.09 in1019.0 mb 0.00 in0.0 mm 0.00 in0.0 mm 0.00 in0.0 mm
06:20 AM 61.6°F16.4°C 49.7°F9.8°C 65% 3.9 mph S6.3 kmh S 5.4 mph8.7 kmh 30.09 in1019.0 mb 0.00 in0.0 mm 0.00 in0.0 mm 0.00 in0.0 mm
06:25 AM 61.8°F16.6°C 49.5°F9.7°C 64% 4.5 mph S7.2 kmh S 7.7 mph12.4 kmh 30.09 in1019.0 mb 0.00 in0.0 mm 0.00 in0.0 mm 0.00 in0.0 mm
06:30 AM 61.8°F16.6°C 49.5°F9.7°C 64% 5.3 mph S8.5 kmh S 7.7 mph12.4 kmh 30.09 in1019.0 mb 0.00 in0.0 mm 0.00 in0.0 mm 0.00 in0.0 mm
06:35 AM 62.0°F16.7°C 49.7°F9.8°C 64% 5.1 mph S8.2 kmh S 8.3 mph13.4 kmh 30.09 in1019.0 mb 0.00 in0.0 mm 0.00 in0.0 mm 0.00 in0.0 mm
06:40 AM 62.5°F16.9°C 50.2°F10.1°C 64% 5.4 mph S8.7 kmh S 8.3 mph13.4 kmh 30.09 in1019.0 mb 0.00 in0.0 mm 0.00 in0.0 mm 0.00 in0.0 mm
06:45 AM 62.3°F16.8°C 49.6°F9.8°C 63% 5.1 mph S8.2 kmh S 8.3 mph13.4 kmh 30.09 in1019.0 mb 0.00 in0.0 mm 0.00 in0.0 mm 0.00 in0.0 mm
06:50 AM 62.3°F16.8°C 49.6°F9.8°C 63% 4.4 mph S7.1 kmh S 7.1 mph11.4 kmh 30.09 in1019.0 mb 0.00 in0.0 mm 0.00 in0.0 mm 0.00 in0.0 mm
06:55 AM 61.8°F16.6°C 49.1°F9.5°C 63% 5.2 mph S8.4 kmh S 8.6 mph13.8 kmh 30.09 in1019.0 mb 0.00 in0.0 mm 0.00 in0.0 mm 0.00 in0.0 mm
07:00 AM 61.8°F16.6°C 49.1°F9.5°C 63% 4.6 mph S7.4 kmh S 8.6 mph13.8 kmh 30.09 in1019.0 mb 0.00 in0.0 mm 0.00 in0.0 mm 0.00 in0.0 mm
07:05 AM 61.6°F16.4°C 49.3°F9.6°C 64% 3.9 mph S6.3 kmh S 8.6 mph13.8 kmh 30.09 in1019.0 mb 0.00 in0.0 mm 0.00 in0.0 mm 0.00 in0.0 mm
07:10 AM 61.4°F16.3°C 49.1°F9.5°C 64% 4.0 mph S6.4 kmh S 7.1 mph11.4 kmh 30.09 in1019.0 mb 0.00 in0.0 mm 0.00 in0.0 mm 0.00 in0.0 mm
07:15 AM 61.4°F16.3°C 49.1°F9.5°C 64% 4.5 mph S7.2 kmh S 6.5 mph10.5 kmh 30.09 in1019.0 mb 0.00 in0.0 mm 0.00 in0.0 mm 0.00 in0.0 mm
07:20 AM 61.4°F16.3°C 49.1°F9.5°C 64% 5.5 mph S8.9 kmh S 9.5 mph15.3 kmh 30.09 in1019.0 mb 0.00 in0.0 mm 0.00 in0.0 mm 0.00 in0.0 mm
07:25 AM 61.8°F16.6°C 49.5°F9.7°C 64% 6.5 mph S10.5 kmh S 9.8 mph15.8 kmh 30.09 in1019.0 mb 0.00 in0.0 mm 0.00 in0.0 mm 0.00 in0.0 mm
07:30 AM 62.2°F16.8°C 49.8°F9.9°C 64% 6.8 mph S10.9 kmh S 9.8 mph15.8 kmh 30.09 in1019.0 mb 0.00 in0.0 mm 0.00 in0.0 mm 0.00 in0.0 mm
07:35 AM 62.7°F17.1°C 50.8°F10.4°C 65% 6.4 mph SSW10.3 kmh SSW 8.3 mph13.4 kmh 30.09 in1019.0 mb 0.00 in0.0 mm 0.00 in0.0 mm 0.00 in0.0 mm
07:40 AM 62.9°F17.2°C 50.5°F10.3°C 64% 6.5 mph SSW10.5 kmh SSW 10.1 mph16.3 kmh 30.09 in1019.0 mb 0.00 in0.0 mm 0.00 in0.0 mm 0.00 in0.0 mm
07:45 AM 63.0°F17.2°C 51.1°F10.6°C 65% 5.5 mph SSW8.9 kmh SSW 10.1 mph16.3 kmh 30.09 in1019.0 mb 0.00 in0.0 mm 0.00 in0.0 mm 0.00 in0.0 mm
07:50 AM 63.2°F17.3°C 50.8°F10.4°C 64% 4.8 mph SW7.7 kmh SW 7.4 mph11.9 kmh 30.12 in1020.0 mb 0.00 in0.0 mm 0.00 in0.0 mm 0.00 in0.0 mm
07:55 AM 64.1°F17.8°C 51.7°F10.9°C 64% 5.1 mph SW8.2 kmh SW 7.4 mph11.9 kmh 30.12 in1020.0 mb 0.00 in0.0 mm 0.00 in0.0 mm 0.00 in0.0 mm
08:00 AM 64.3°F17.9°C 51.9°F11.1°C 64% 6.3 mph SSW10.1 kmh SSW 10.7 mph17.2 kmh 30.12 in1020.0 mb 0.00 in0.0 mm 0.00 in0.0 mm 0.00 in0.0 mm
08:05 AM 64.3°F17.9°C 51.9°F11.1°C 64% 7.4 mph SSW11.9 kmh SSW 10.7 mph17.2 kmh 30.12 in1020.0 mb 0.00 in0.0 mm 0.00 in0.0 mm 0.00 in0.0 mm
08:10 AM 64.7°F18.2°C 52.2°F11.2°C 64% 6.9 mph SSW11.1 kmh SSW 9.8 mph15.8 kmh 30.12 in1020.0 mb 0.00 in0.0 mm 0.00 in0.0 mm 0.00 in0.0 mm
08:15 AM 65.0°F18.3°C 52.1°F11.2°C 63% 6.5 mph SW10.5 kmh SW 9.8 mph15.8 kmh 30.12 in1020.0 mb 0.00 in0.0 mm 0.00 in0.0 mm 0.00 in0.0 mm
08:20 AM 65.6°F18.7°C 52.6°F11.4°C 63% 5.5 mph SSW8.9 kmh SSW 9.8 mph15.8 kmh 30.12 in1020.0 mb 0.00 in0.0 mm 0.00 in0.0 mm 0.00 in0.0 mm
08:25 AM 65.9°F18.8°C 53.0°F11.7°C 63% 5.4 mph SSW8.7 kmh SSW 8.6 mph13.8 kmh 30.12 in1020.0 mb 0.00 in0.0 mm 0.00 in0.0 mm 0.00 in0.0 mm
08:30 AM 66.3°F19.1°C 53.3°F11.8°C 63% 6.9 mph SSW11.1 kmh SSW 13.4 mph21.6 kmh 30.12 in1020.0 mb 0.00 in0.0 mm 0.00 in0.0 mm 0.00 in0.0 mm
08:35 AM 66.5°F19.2°C 53.0°F11.7°C 62% 7.5 mph SSW12.1 kmh SSW 13.4 mph21.6 kmh 30.12 in1020.0 mb 0.00 in0.0 mm 0.00 in0.0 mm 0.00 in0.0 mm
08:40 AM 66.8°F19.3°C 53.4°F11.9°C 62% 5.5 mph SW8.9 kmh SW 10.4 mph16.7 kmh 30.12 in1020.0 mb 0.00 in0.0 mm 0.00 in0.0 mm 0.00 in0.0 mm
08:45 AM 67.4°F19.7°C 53.5°F11.9°C 61% 5.4 mph SW8.7 kmh SW 10.7 mph17.2 kmh 30.12 in1020.0 mb 0.00 in0.0 mm 0.00 in0.0 mm 0.00 in0.0 mm
08:50 AM 67.4°F19.7°C 53.5°F11.9°C 61% 6.8 mph SW10.9 kmh SW 10.7 mph17.2 kmh 30.09 in1019.0 mb 0.00 in0.0 mm 0.00 in0.0 mm 0.00 in0.0 mm
08:55 AM 67.4°F19.7°C 53.0°F11.7°C 60% 6.5 mph SSW10.5 kmh SSW 8.6 mph13.8 kmh 30.09 in1019.0 mb 0.00 in0.0 mm 0.00 in0.0 mm 0.00 in0.0 mm
09:00 AM 67.4°F19.7°C 53.0°F11.7°C 60% 6.3 mph SSW10.1 kmh SSW 10.1 mph16.3 kmh 30.09 in1019.0 mb 0.00 in0.0 mm 0.00 in0.0 mm 0.00 in0.0 mm
09:05 AM 67.4°F19.7°C 53.0°F11.7°C 60% 6.0 mph SSW9.7 kmh SSW 10.1 mph16.3 kmh 30.09 in1019.0 mb 0.00 in0.0 mm 0.00 in0.0 mm 0.00 in0.0 mm
09:10 AM 67.7°F19.8°C 53.3°F11.8°C 60% 6.5 mph SW10.5 kmh SW 10.1 mph16.3 kmh 30.09 in1019.0 mb 0.00 in0.0 mm 0.00 in0.0 mm 0.00 in0.0 mm
09:15 AM 68.1°F20.1°C 53.7°F12.1°C 60% 7.0 mph SW11.3 kmh SW 9.8 mph15.8 kmh 30.09 in1019.0 mb 0.00 in0.0 mm 0.00 in0.0 mm 0.00 in0.0 mm
09:20 AM 68.4°F20.2°C 54.0°F12.2°C 60% 5.6 mph SW9.0 kmh SW 9.8 mph15.8 kmh 30.09 in1019.0 mb 0.00 in0.0 mm 0.00 in0.0 mm 0.00 in0.0 mm
09:25 AM 68.8°F20.4°C 53.9°F12.2°C 59% 6.4 mph SW10.3 kmh SW 10.4 mph16.7 kmh 30.09 in1019.0 mb 0.00 in0.0 mm 0.00 in0.0 mm 0.00 in0.0 mm
09:30 AM 68.8°F20.4°C 53.4°F11.9°C 58% 7.5 mph SSW12.1 kmh SSW 10.7 mph17.2 kmh 30.09 in1019.0 mb 0.00 in0.0 mm 0.00 in0.0 mm 0.00 in0.0 mm
09:35 AM 69.2°F20.7°C 53.8°F12.1°C 58% 7.3 mph SSW11.7 kmh SSW 10.7 mph17.2 kmh 30.09 in1019.0 mb 0.00 in0.0 mm 0.00 in0.0 mm 0.00 in0.0 mm
09:40 AM 69.3°F20.7°C 53.5°F11.9°C 57% 7.4 mph SW11.9 kmh SW 9.2 mph14.8 kmh 30.09 in1019.0 mb 0.00 in0.0 mm 0.00 in0.0 mm 0.00 in0.0 mm
09:45 AM 69.5°F20.8°C 53.6°F12.0°C 57% 7.6 mph SW12.2 kmh SW 13.7 mph22.0 kmh 30.09 in1019.0 mb 0.00 in0.0 mm 0.00 in0.0 mm 0.00 in0.0 mm
09:50 AM 69.5°F20.8°C 53.6°F12.0°C 57% 7.5 mph SW12.1 kmh SW 13.7 mph22.0 kmh 30.09 in1019.0 mb 0.00 in0.0 mm 0.00 in0.0 mm 0.00 in0.0 mm
09:55 AM 70.3°F21.3°C 53.8°F12.1°C 56% 6.1 mph SSW9.8 kmh SSW 9.8 mph15.8 kmh 30.09 in1019.0 mb 0.00 in0.0 mm 0.00 in0.0 mm 0.00 in0.0 mm
10:00 AM 70.4°F21.3°C 53.5°F11.9°C 55% 5.8 mph SW9.3 kmh SW 11.3 mph18.2 kmh 30.09 in1019.0 mb 0.00 in0.0 mm 0.00 in0.0 mm 0.00 in0.0 mm
10:05 AM 70.6°F21.4°C 53.2°F11.8°C 54% 6.3 mph WSW10.1 kmh WSW 11.3 mph18.2 kmh 30.09 in1019.0 mb 0.00 in0.0 mm 0.00 in0.0 mm 0.00 in0.0 mm
10:10 AM 70.6°F21.4°C 52.6°F11.4°C 53% 5.8 mph SW9.3 kmh SW 10.7 mph17.2 kmh 30.09 in1019.0 mb 0.00 in0.0 mm 0.00 in0.0 mm 0.00 in0.0 mm
10:15 AM 70.8°F21.6°C 52.3°F11.3°C 52% 5.6 mph SW9.0 kmh SW 10.1 mph16.3 kmh 30.09 in1019.0 mb 0.00 in0.0 mm 0.00 in0.0 mm 0.00 in0.0 mm
10:20 AM 71.0°F21.7°C 52.5°F11.4°C 52% 6.3 mph SSW10.1 kmh SSW 10.1 mph16.3 kmh 30.09 in1019.0 mb 0.00 in0.0 mm 0.00 in0.0 mm 0.00 in0.0 mm
10:25 AM 71.3°F21.8°C 52.8°F11.6°C 52% 7.2 mph S11.6 kmh S 12.5 mph20.1 kmh 30.09 in1019.0 mb 0.00 in0.0 mm 0.00 in0.0 mm 0.00 in0.0 mm
10:30 AM 71.2°F21.8°C 52.1°F11.2°C 51% 8.0 mph S12.9 kmh S 12.5 mph20.1 kmh 30.09 in1019.0 mb 0.00 in0.0 mm 0.00 in0.0 mm 0.00 in0.0 mm
10:35 AM 71.3°F21.8°C 52.8°F11.6°C 52% 9.0 mph SSW14.5 kmh SSW 12.5 mph20.1 kmh 30.07 in1018.3 mb 0.00 in0.0 mm 0.00 in0.0 mm 0.00 in0.0 mm
10:40 AM 71.3°F21.8°C 52.3°F11.3°C 51% 6.8 mph SSW10.9 kmh SSW 12.5 mph20.1 kmh 30.07 in1018.3 mb 0.00 in0.0 mm 0.00 in0.0 mm 0.00 in0.0 mm
10:45 AM 71.0°F21.7°C 51.9°F11.1°C 51% 6.7 mph SW10.8 kmh SW 14.3 mph23.0 kmh 30.07 in1018.3 mb 0.00 in0.0 mm 0.00 in0.0 mm 0.00 in0.0 mm
10:50 AM 70.4°F21.3°C 51.4°F10.8°C 51% 7.3 mph WSW11.7 kmh WSW 14.3 mph23.0 kmh 30.07 in1018.3 mb 0.00 in0.0 mm 0.00 in0.0 mm 0.00 in0.0 mm
10:55 AM 69.7°F20.9°C 51.3°F10.7°C 52% 6.2 mph SW10.0 kmh SW 8.3 mph13.4 kmh 30.07 in1018.3 mb 0.00 in0.0 mm 0.00 in0.0 mm 0.00 in0.0 mm
11:00 AM 69.3°F20.7°C 51.0°F10.6°C 52% 6.2 mph SSW10.0 kmh SSW 8.0 mph12.9 kmh 30.07 in1018.3 mb 0.00 in0.0 mm 0.00 in0.0 mm 0.00 in0.0 mm
11:05 AM 68.4°F20.2°C 50.6°F10.3°C 53% 5.4 mph S8.7 kmh S 7.7 mph12.4 kmh 30.07 in1018.3 mb 0.00 in0.0 mm 0.00 in0.0 mm 0.00 in0.0 mm
11:10 AM 67.9°F19.9°C 50.6°F10.3°C 54% 5.2 mph S8.4 kmh S 7.7 mph12.4 kmh 30.07 in1018.3 mb 0.00 in0.0 mm 0.00 in0.0 mm 0.00 in0.0 mm
11:15 AM 67.7°F19.8°C 50.5°F10.3°C 54% 5.1 mph SSW8.2 kmh SSW 7.7 mph12.4 kmh 30.07 in1018.3 mb 0.00 in0.0 mm 0.00 in0.0 mm 0.00 in0.0 mm
11:20 AM 67.4°F19.7°C 50.6°F10.3°C 55% 4.9 mph SW7.9 kmh SW 7.4 mph11.9 kmh 30.07 in1018.3 mb 0.00 in0.0 mm 0.00 in0.0 mm 0.00 in0.0 mm
11:25 AM 67.0°F19.4°C 50.3°F10.2°C 55% 5.0 mph SSW8.0 kmh SSW 8.6 mph13.8 kmh 30.07 in1018.3 mb 0.00 in0.0 mm 0.00 in0.0 mm 0.00 in0.0 mm
11:30 AM 67.0°F19.4°C 50.8°F10.4°C 56% 5.0 mph SW8.0 kmh SW 8.6 mph13.8 kmh 30.07 in1018.3 mb 0.00 in0.0 mm 0.00 in0.0 mm 0.00 in0.0 mm
11:35 AM 66.7°F19.3°C 50.9°F10.5°C 57% 5.2 mph WSW8.4 kmh WSW 8.3 mph13.4 kmh 30.07 in1018.3 mb 0.00 in0.0 mm 0.00 in0.0 mm 0.00 in0.0 mm
11:40 AM 66.7°F19.3°C 50.9°F10.5°C 57% 5.4 mph WSW8.7 kmh WSW 8.3 mph13.4 kmh 30.07 in1018.3 mb 0.00 in0.0 mm 0.00 in0.0 mm 0.00 in0.0 mm
11:45 AM 66.7°F19.3°C 51.4°F10.8°C 58% 4.3 mph WSW6.9 kmh WSW 7.4 mph11.9 kmh 30.07 in1018.3 mb 0.00 in0.0 mm 0.00 in0.0 mm 0.00 in0.0 mm
11:50 AM 66.7°F19.3°C 51.9°F11.1°C 59% 5.6 mph W9.0 kmh W 8.9 mph14.3 kmh 30.07 in1018.3 mb 0.00 in0.0 mm 0.00 in0.0 mm 0.00 in0.0 mm
11:55 AM 67.0°F19.4°C 51.7°F10.9°C 58% 7.4 mph W11.9 kmh W 8.9 mph14.3 kmh 30.07 in1018.3 mb 0.00 in0.0 mm 0.00 in0.0 mm 0.00 in0.0 mm
12:00 PM 67.2°F19.6°C 52.4°F11.3°C 59% 6.7 mph W10.8 kmh W 8.6 mph13.8 kmh 30.07 in1018.3 mb 0.00 in0.0 mm 0.00 in0.0 mm 0.00 in0.0 mm
12:05 PM 68.3°F20.2°C 52.9°F11.6°C 58% 5.9 mph WNW9.5 kmh WNW 9.8 mph15.8 kmh 30.07 in1018.3 mb 0.00 in0.0 mm 0.00 in0.0 mm 0.00 in0.0 mm
12:10 PM 69.0°F20.6°C 53.1°F11.7°C 57% 6.0 mph W9.7 kmh W 9.8 mph15.8 kmh 30.07 in1018.3 mb 0.00 in0.0 mm 0.00 in0.0 mm 0.00 in0.0 mm
12:15 PM 69.3°F20.7°C 53.5°F11.9°C 57% 8.3 mph W13.4 kmh W 14.3 mph23.0 kmh 30.07 in1018.3 mb 0.00 in0.0 mm 0.00 in0.0 mm 0.00 in0.0 mm
12:20 PM 69.3°F20.7°C 53.0°F11.7°C 56% 9.2 mph WNW14.8 kmh WNW 14.3 mph23.0 kmh 30.07 in1018.3 mb 0.00 in0.0 mm 0.00 in0.0 mm 0.00 in0.0 mm
12:25 PM 68.4°F20.2°C 51.6°F10.9°C 55% 10.2 mph NW16.4 kmh NW 15.2 mph24.5 kmh 30.07 in1018.3 mb 0.00 in0.0 mm 0.00 in0.0 mm 0.00 in0.0 mm
12:30 PM 68.3°F20.2°C 52.0°F11.1°C 56% 10.1 mph WNW16.3 kmh WNW 15.2 mph24.5 kmh 30.07 in1018.3 mb 0.00 in0.0 mm 0.00 in0.0 mm 0.00 in0.0 mm
12:35 PM 68.1°F20.1°C 51.8°F11.0°C 56% 9.3 mph W15.0 kmh W 13.7 mph22.0 kmh 30.07 in1018.3 mb 0.00 in0.0 mm 0.00 in0.0 mm 0.00 in0.0 mm
12:40 PM 67.7°F19.8°C 51.5°F10.8°C 56% 9.4 mph W15.1 kmh W 13.7 mph22.0 kmh 30.07 in1018.3 mb 0.00 in0.0 mm 0.00 in0.0 mm 0.00 in0.0 mm
12:45 PM 67.7°F19.8°C 51.5°F10.8°C 56% 9.0 mph W14.5 kmh W 13.4 mph21.6 kmh 30.07 in1018.3 mb 0.00 in0.0 mm 0.00 in0.0 mm 0.00 in0.0 mm
12:50 PM 67.4°F19.7°C 51.1°F10.6°C 56% 8.9 mph W14.3 kmh W 13.4 mph21.6 kmh 30.07 in1018.3 mb 0.00 in0.0 mm 0.00 in0.0 mm 0.00 in0.0 mm
12:55 PM 67.4°F19.7°C 51.1°F10.6°C 56% 8.6 mph WNW13.8 kmh WNW 13.1 mph21.1 kmh 30.07 in1018.3 mb 0.00 in0.0 mm 0.00 in0.0 mm 0.00 in0.0 mm
01:00 PM 67.4°F19.7°C 51.6°F10.9°C 57% 8.9 mph WNW14.3 kmh WNW 12.2 mph19.6 kmh 30.07 in1018.3 mb 0.00 in0.0 mm 0.00 in0.0 mm 0.00 in0.0 mm
01:05 PM 67.6°F19.8°C 52.2°F11.2°C 58% 8.6 mph WNW13.8 kmh WNW 14.0 mph22.5 kmh 30.07 in1018.3 mb 0.00 in0.0 mm 0.00 in0.0 mm 0.00 in0.0 mm
01:10 PM 67.9°F19.9°C 52.6°F11.4°C 58% 7.6 mph WNW12.2 kmh WNW 14.0 mph22.5 kmh 30.07 in1018.3 mb 0.00 in0.0 mm 0.00 in0.0 mm 0.00 in0.0 mm
01:15 PM 68.3°F20.2°C 52.9°F11.6°C 58% 7.1 mph WNW11.4 kmh WNW 10.4 mph16.7 kmh 30.07 in1018.3 mb 0.00 in0.0 mm 0.00 in0.0 mm 0.00 in0.0 mm
01:20 PM 68.3°F20.2°C 52.9°F11.6°C 58% 7.6 mph W12.2 kmh W 13.1 mph21.1 kmh 30.07 in1018.3 mb 0.00 in0.0 mm 0.00 in0.0 mm 0.00 in0.0 mm
01:25 PM 67.9°F19.9°C 52.6°F11.4°C 58% 7.5 mph W12.1 kmh W 13.1 mph21.1 kmh 30.07 in1018.3 mb 0.00 in0.0 mm 0.00 in0.0 mm 0.00 in0.0 mm
01:30 PM 68.3°F20.2°C 52.4°F11.3°C 57% 7.5 mph W12.1 kmh W 10.1 mph16.3 kmh 30.07 in1018.3 mb 0.00 in0.0 mm 0.00 in0.0 mm 0.00 in0.0 mm
01:35 PM 68.4°F20.2°C 52.6°F11.4°C 57% 7.8 mph WSW12.6 kmh WSW 10.1 mph16.3 kmh 30.07 in1018.3 mb 0.00 in0.0 mm 0.00 in0.0 mm 0.00 in0.0 mm
01:40 PM 68.3°F20.2°C 52.4°F11.3°C 57% 8.0 mph WSW12.9 kmh WSW 10.4 mph16.7 kmh 30.07 in1018.3 mb 0.00 in0.0 mm 0.00 in0.0 mm 0.00 in0.0 mm
01:45 PM 68.1°F20.1°C 52.3°F11.3°C 57% 8.1 mph WSW13.0 kmh WSW 10.4 mph16.7 kmh 30.07 in1018.3 mb 0.00 in0.0 mm 0.00 in0.0 mm 0.00 in0.0 mm
01:50 PM 67.6°F19.8°C 51.3°F10.7°C 56% 8.5 mph WSW13.7 kmh WSW 10.4 mph16.7 kmh 30.07 in1018.3 mb 0.00 in0.0 mm 0.00 in0.0 mm 0.00 in0.0 mm
01:55 PM 67.4°F19.7°C 51.1°F10.6°C 56% 8.6 mph W13.8 kmh W 10.4 mph16.7 kmh 30.07 in1018.3 mb 0.00 in0.0 mm 0.00 in0.0 mm 0.00 in0.0 mm
02:00 PM 67.6°F19.8°C 50.8°F10.4°C 55% 7.2 mph W11.6 kmh W 10.4 mph16.7 kmh 30.07 in1018.3 mb 0.00 in0.0 mm 0.00 in0.0 mm 0.00 in0.0 mm
02:05 PM 67.7°F19.8°C 51.5°F10.8°C 56% 6.3 mph W10.1 kmh W 7.7 mph12.4 kmh 30.07 in1018.3 mb 0.00 in0.0 mm 0.00 in0.0 mm 0.00 in0.0 mm
02:10 PM 68.1°F20.1°C 51.8°F11.0°C 56% 5.5 mph WSW8.9 kmh WSW 7.1 mph11.4 kmh 30.07 in1018.3 mb 0.00 in0.0 mm 0.00 in0.0 mm 0.00 in0.0 mm
02:15 PM 68.1°F20.1°C 51.3°F10.7°C 55% 6.7 mph WSW10.8 kmh WSW 11.6 mph18.7 kmh 30.07 in1018.3 mb 0.00 in0.0 mm 0.00 in0.0 mm 0.00 in0.0 mm
02:20 PM 68.1°F20.1°C 50.8°F10.4°C 54% 8.0 mph W12.9 kmh W 11.6 mph18.7 kmh 30.07 in1018.3 mb 0.00 in0.0 mm 0.00 in0.0 mm 0.00 in0.0 mm
02:25 PM 67.7°F19.8°C 50.5°F10.3°C 54% 8.6 mph W13.8 kmh W 13.1 mph21.1 kmh 30.07 in1018.3 mb 0.00 in0.0 mm 0.00 in0.0 mm 0.00 in0.0 mm
02:30 PM 67.7°F19.8°C 50.5°F10.3°C 54% 9.8 mph WSW15.8 kmh WSW 13.1 mph21.1 kmh 30.07 in1018.3 mb 0.00 in0.0 mm 0.00 in0.0 mm 0.00 in0.0 mm
02:35 PM 67.2°F19.6°C 50.0°F10.0°C 54% 8.1 mph W13.0 kmh W 11.3 mph18.2 kmh 30.07 in1018.3 mb 0.00 in0.0 mm 0.00 in0.0 mm 0.00 in0.0 mm
02:40 PM 67.2°F19.6°C 50.0°F10.0°C 54% 6.7 mph WSW10.8 kmh WSW 10.7 mph17.2 kmh 30.07 in1018.3 mb 0.00 in0.0 mm 0.00 in0.0 mm 0.00 in0.0 mm
02:45 PM 66.8°F19.3°C 49.6°F9.8°C 54% 7.0 mph WSW11.3 kmh WSW 9.5 mph15.3 kmh 30.07 in1018.3 mb 0.00 in0.0 mm 0.00 in0.0 mm 0.00 in0.0 mm
02:50 PM 66.8°F19.3°C 49.1°F9.5°C 53% 8.0 mph W12.9 kmh W 12.8 mph20.6 kmh 30.07 in1018.3 mb 0.00 in0.0 mm 0.00 in0.0 mm 0.00 in0.0 mm
02:55 PM 66.8°F19.3°C 49.1°F9.5°C 53% 8.6 mph W13.8 kmh W 13.7 mph22.0 kmh 30.07 in1018.3 mb 0.00 in0.0 mm 0.00 in0.0 mm 0.00 in0.0 mm
03:00 PM 66.3°F19.1°C 48.6°F9.2°C 53% 8.6 mph W13.8 kmh W 13.7 mph22.0 kmh 30.07 in1018.3 mb 0.00 in0.0 mm 0.00 in0.0 mm 0.00 in0.0 mm
03:05 PM 65.9°F18.8°C 48.3°F9.1°C 53% 9.4 mph W15.1 kmh W 13.7 mph22.0 kmh 30.07 in1018.3 mb 0.00 in0.0 mm 0.00 in0.0 mm 0.00 in0.0 mm
03:10 PM 65.9°F18.8°C 48.3°F9.1°C 53% 10.9 mph W17.5 kmh W 17.0 mph27.4 kmh 30.07 in1018.3 mb 0.00 in0.0 mm 0.00 in0.0 mm 0.00 in0.0 mm
03:15 PM 65.4°F18.6°C 47.8°F8.8°C 53% 10.5 mph W16.9 kmh W 17.0 mph27.4 kmh 30.07 in1018.3 mb 0.00 in0.0 mm 0.00 in0.0 mm 0.00 in0.0 mm
03:20 PM 65.2°F18.4°C 47.6°F8.7°C 53% 8.4 mph W13.5 kmh W 14.6 mph23.5 kmh 30.07 in1018.3 mb 0.00 in0.0 mm 0.00 in0.0 mm 0.00 in0.0 mm
03:25 PM 65.2°F18.4°C 47.6°F8.7°C 53% 7.6 mph W12.2 kmh W 13.7 mph22.0 kmh 30.07 in1018.3 mb 0.00 in0.0 mm 0.00 in0.0 mm 0.00 in0.0 mm
03:30 PM 65.0°F18.3°C 47.5°F8.6°C 53% 8.3 mph W13.4 kmh W 12.8 mph20.6 kmh 30.07 in1018.3 mb 0.00 in0.0 mm 0.00 in0.0 mm 0.00 in0.0 mm
03:35 PM 64.7°F18.2°C 47.6°F8.7°C 54% 10.9 mph W17.5 kmh W 17.0 mph27.4 kmh 30.07 in1018.3 mb 0.00 in0.0 mm 0.00 in0.0 mm 0.00 in0.0 mm
03:40 PM 64.5°F18.1°C 48.0°F8.9°C 55% 11.5 mph W18.5 kmh W 17.6 mph28.3 kmh 30.07 in1018.3 mb 0.00 in0.0 mm 0.00 in0.0 mm 0.00 in0.0 mm
03:45 PM 64.1°F17.8°C 48.1°F8.9°C 56% 9.7 mph W15.6 kmh W 17.6 mph28.3 kmh 30.07 in1018.3 mb 0.00 in0.0 mm 0.00 in0.0 mm 0.00 in0.0 mm
03:50 PM 64.1°F17.8°C 48.1°F8.9°C 56% 9.3 mph W15.0 kmh W 14.6 mph23.5 kmh 30.04 in1017.3 mb 0.00 in0.0 mm 0.00 in0.0 mm 0.00 in0.0 mm
03:55 PM 64.0°F17.8°C 47.9°F8.8°C 56% 10.9 mph WNW17.5 kmh WNW 15.2 mph24.5 kmh 30.04 in1017.3 mb 0.00 in0.0 mm 0.00 in0.0 mm 0.00 in0.0 mm
04:00 PM 64.3°F17.9°C 48.7°F9.3°C 57% 10.2 mph WNW16.4 kmh WNW 15.2 mph24.5 kmh 30.04 in1017.3 mb 0.00 in0.0 mm 0.00 in0.0 mm 0.00 in0.0 mm
04:05 PM 64.1°F17.8°C 48.6°F9.2°C 57% 8.2 mph W13.2 kmh W 12.8 mph20.6 kmh 30.04 in1017.3 mb 0.00 in0.0 mm 0.00 in0.0 mm 0.00 in0.0 mm
04:10 PM 64.1°F17.8°C 48.6°F9.2°C 57% 7.6 mph W12.2 kmh W 11.6 mph18.7 kmh 30.04 in1017.3 mb 0.00 in0.0 mm 0.00 in0.0 mm 0.00 in0.0 mm
04:15 PM 64.3°F17.9°C 49.2°F9.6°C 58% 5.8 mph W9.3 kmh W 10.1 mph16.3 kmh 30.04 in1017.3 mb 0.00 in0.0 mm 0.00 in0.0 mm 0.00 in0.0 mm
04:20 PM 64.5°F18.1°C 49.4°F9.7°C 58% 6.0 mph W9.7 kmh W 10.4 mph16.7 kmh 30.04 in1017.3 mb 0.00 in0.0 mm 0.00 in0.0 mm 0.00 in0.0 mm
04:25 PM 64.5°F18.1°C 49.8°F9.9°C 59% 6.8 mph WSW10.9 kmh WSW 10.4 mph16.7 kmh 30.04 in1017.3 mb 0.00 in0.0 mm 0.00 in0.0 mm 0.00 in0.0 mm
04:30 PM 64.3°F17.9°C 49.7°F9.8°C 59% 7.8 mph WSW12.6 kmh WSW 10.4 mph16.7 kmh 30.04 in1017.3 mb 0.00 in0.0 mm 0.00 in0.0 mm 0.00 in0.0 mm
04:35 PM 64.1°F17.8°C 49.0°F9.4°C 58% 7.0 mph W11.3 kmh W 10.1 mph16.3 kmh 30.04 in1017.3 mb 0.00 in0.0 mm 0.00 in0.0 mm 0.00 in0.0 mm
04:40 PM 64.0°F17.8°C 48.9°F9.4°C 58% 5.6 mph W9.0 kmh W 8.3 mph13.4 kmh 30.04 in1017.3 mb 0.00 in0.0 mm 0.00 in0.0 mm 0.00 in0.0 mm
04:45 PM 64.0°F17.8°C 48.9°F9.4°C 58% 7.6 mph W12.2 kmh W 11.6 mph18.7 kmh 30.04 in1017.3 mb 0.00 in0.0 mm 0.00 in0.0 mm 0.00 in0.0 mm
04:50 PM 63.8°F17.7°C 48.7°F9.3°C 58% 8.3 mph W13.4 kmh W 11.6 mph18.7 kmh 30.04 in1017.3 mb 0.00 in0.0 mm 0.00 in0.0 mm 0.00 in0.0 mm
04:55 PM 63.8°F17.7°C 48.7°F9.3°C 58% 8.0 mph W12.9 kmh W 10.7 mph17.2 kmh 30.04 in1017.3 mb 0.00 in0.0 mm 0.00 in0.0 mm 0.00 in0.0 mm
05:00 PM 63.6°F17.6°C 49.0°F9.4°C 59% 8.9 mph W14.3 kmh W 12.8 mph20.6 kmh 30.04 in1017.3 mb 0.00 in0.0 mm 0.00 in0.0 mm 0.00 in0.0 mm
05:05 PM 63.6°F17.6°C 49.0°F9.4°C 59% 7.0 mph W11.3 kmh W 12.8 mph20.6 kmh 30.04 in1017.3 mb 0.00 in0.0 mm 0.00 in0.0 mm 0.00 in0.0 mm
05:10 PM 63.4°F17.4°C 48.8°F9.3°C 59% 7.0 mph WSW11.3 kmh WSW 13.1 mph21.1 kmh 30.04 in1017.3 mb 0.00 in0.0 mm 0.00 in0.0 mm 0.00 in0.0 mm
05:15 PM 63.2°F17.3°C 48.7°F9.3°C 59% 8.4 mph WSW13.5 kmh WSW 13.1 mph21.1 kmh 30.04 in1017.3 mb 0.00 in0.0 mm 0.00 in0.0 mm 0.00 in0.0 mm
05:20 PM 63.2°F17.3°C 48.7°F9.3°C 59% 7.2 mph W11.6 kmh W 10.4 mph16.7 kmh 30.04 in1017.3 mb 0.00 in0.0 mm 0.00 in0.0 mm 0.00 in0.0 mm
05:25 PM 63.0°F17.2°C 48.5°F9.2°C 59% 7.1 mph W11.4 kmh W 9.8 mph15.8 kmh 30.04 in1017.3 mb 0.00 in0.0 mm 0.00 in0.0 mm 0.00 in0.0 mm
05:30 PM 63.0°F17.2°C 48.5°F9.2°C 59% 8.6 mph W13.8 kmh W 16.4 mph26.4 kmh 30.04 in1017.3 mb 0.00 in0.0 mm 0.00 in0.0 mm 0.00 in0.0 mm
05:35 PM 62.7°F17.1°C 48.2°F9.0°C 59% 8.9 mph WNW14.3 kmh WNW 16.4 mph26.4 kmh 30.04 in1017.3 mb 0.00 in0.0 mm 0.00 in0.0 mm 0.00 in0.0 mm
05:40 PM 62.7°F17.1°C 48.2°F9.0°C 59% 8.2 mph WNW13.2 kmh WNW 13.1 mph21.1 kmh 30.04 in1017.3 mb 0.00 in0.0 mm 0.00 in0.0 mm 0.00 in0.0 mm
05:45 PM 62.3°F16.8°C 47.4°F8.6°C 58% 7.7 mph WNW12.4 kmh WNW 10.1 mph16.3 kmh 30.04 in1017.3 mb 0.00 in0.0 mm 0.00 in0.0 mm 0.00 in0.0 mm
05:50 PM 62.2°F16.8°C 47.6°F8.7°C 59% 7.9 mph WNW12.7 kmh WNW 13.1 mph21.1 kmh 30.04 in1017.3 mb 0.00 in0.0 mm 0.00 in0.0 mm 0.00 in0.0 mm
05:55 PM 62.0°F16.7°C 47.5°F8.6°C 59% 9.5 mph W15.3 kmh W 13.7 mph22.0 kmh 30.04 in1017.3 mb 0.00 in0.0 mm 0.00 in0.0 mm 0.00 in0.0 mm
06:00 PM 62.0°F16.7°C 47.5°F8.6°C 59% 11.0 mph W17.7 kmh W 13.7 mph22.0 kmh 30.04 in1017.3 mb 0.00 in0.0 mm 0.00 in0.0 mm 0.00 in0.0 mm
06:05 PM 61.6°F16.4°C 47.1°F8.4°C 59% 8.6 mph W13.8 kmh W 11.6 mph18.7 kmh 30.01 in1016.3 mb 0.00 in0.0 mm 0.00 in0.0 mm 0.00 in0.0 mm
06:10 PM 61.6°F16.4°C 47.1°F8.4°C 59% 7.5 mph W12.1 kmh W 11.6 mph18.7 kmh 30.01 in1016.3 mb 0.00 in0.0 mm 0.00 in0.0 mm 0.00 in0.0 mm
06:15 PM 61.6°F16.4°C 47.6°F8.7°C 60% 8.0 mph WNW12.9 kmh WNW 13.4 mph21.6 kmh 30.01 in1016.3 mb 0.00 in0.0 mm 0.00 in0.0 mm 0.00 in0.0 mm
06:20 PM 61.4°F16.3°C 47.4°F8.6°C 60% 8.7 mph W14.0 kmh W 13.4 mph21.6 kmh 30.01 in1016.3 mb 0.00 in0.0 mm 0.00 in0.0 mm 0.00 in0.0 mm
06:25 PM 61.4°F16.3°C 47.9°F8.8°C 61% 7.8 mph W12.6 kmh W 13.4 mph21.6 kmh 30.01 in1016.3 mb 0.00 in0.0 mm 0.00 in0.0 mm 0.00 in0.0 mm
06:30 PM 61.3°F16.3°C 48.1°F8.9°C 62% 6.9 mph W11.1 kmh W 10.7 mph17.2 kmh 30.01 in1016.3 mb 0.00 in0.0 mm 0.00 in0.0 mm 0.00 in0.0 mm
06:35 PM 61.3°F16.3°C 48.1°F8.9°C 62% 7.0 mph W11.3 kmh W 10.7 mph17.2 kmh 30.01 in1016.3 mb 0.00 in0.0 mm 0.00 in0.0 mm 0.00 in0.0 mm
06:40 PM 61.1°F16.2°C 47.9°F8.8°C 62% 7.6 mph W12.2 kmh W 10.7 mph17.2 kmh 30.01 in1016.3 mb 0.00 in0.0 mm 0.00 in0.0 mm 0.00 in0.0 mm
06:45 PM 61.1°F16.2°C 47.9°F8.8°C 62% 7.8 mph W12.6 kmh W 13.4 mph21.6 kmh 30.01 in1016.3 mb 0.00 in0.0 mm 0.00 in0.0 mm 0.00 in0.0 mm
06:50 PM 61.1°F16.2°C 48.4°F9.1°C 63% 8.0 mph WNW12.9 kmh WNW 13.4 mph21.6 kmh 30.01 in1016.3 mb 0.00 in0.0 mm 0.00 in0.0 mm 0.00 in0.0 mm
06:55 PM 61.1°F16.2°C 48.4°F9.1°C 63% 9.2 mph NW14.8 kmh NW 13.4 mph21.6 kmh 30.01 in1016.3 mb 0.00 in0.0 mm 0.00 in0.0 mm 0.00 in0.0 mm
07:00 PM 60.9°F16.1°C 48.2°F9.0°C 63% 8.7 mph WNW14.0 kmh WNW 13.1 mph21.1 kmh 30.01 in1016.3 mb 0.00 in0.0 mm 0.00 in0.0 mm 0.00 in0.0 mm
07:05 PM 60.7°F15.9°C 48.0°F8.9°C 63% 9.0 mph WNW14.5 kmh WNW 13.7 mph22.0 kmh 30.01 in1016.3 mb 0.00 in0.0 mm 0.00 in0.0 mm 0.00 in0.0 mm
07:10 PM 60.7°F15.9°C 48.5°F9.2°C 64% 10.5 mph W16.9 kmh W 16.7 mph26.9 kmh 30.01 in1016.3 mb 0.00 in0.0 mm 0.00 in0.0 mm 0.00 in0.0 mm
07:15 PM 60.7°F15.9°C 48.5°F9.2°C 64% 9.9 mph W15.9 kmh W 16.7 mph26.9 kmh 30.01 in1016.3 mb 0.00 in0.0 mm 0.00 in0.0 mm 0.00 in0.0 mm
07:20 PM 60.7°F15.9°C 48.5°F9.2°C 64% 9.4 mph WNW15.1 kmh WNW 14.3 mph23.0 kmh 30.01 in1016.3 mb 0.00 in0.0 mm 0.00 in0.0 mm 0.00 in0.0 mm
07:25 PM 60.5°F15.8°C 48.3°F9.1°C 64% 8.2 mph W13.2 kmh W 14.3 mph23.0 kmh 30.01 in1016.3 mb 0.00 in0.0 mm 0.00 in0.0 mm 0.00 in0.0 mm
07:30 PM 60.5°F15.8°C 48.7°F9.3°C 65% 7.1 mph WSW11.4 kmh WSW 10.4 mph16.7 kmh 30.01 in1016.3 mb 0.00 in0.0 mm 0.00 in0.0 mm 0.00 in0.0 mm
07:35 PM 60.5°F15.8°C 48.7°F9.3°C 65% 6.7 mph W10.8 kmh W 10.7 mph17.2 kmh 30.01 in1016.3 mb 0.00 in0.0 mm 0.00 in0.0 mm 0.00 in0.0 mm
07:40 PM 60.5°F15.8°C 48.7°F9.3°C 65% 6.9 mph W11.1 kmh W 11.6 mph18.7 kmh 30.01 in1016.3 mb 0.00 in0.0 mm 0.00 in0.0 mm 0.00 in0.0 mm
07:45 PM 60.5°F15.8°C 48.7°F9.3°C 65% 6.6 mph W10.6 kmh W 14.6 mph23.5 kmh 30.01 in1016.3 mb 0.00 in0.0 mm 0.00 in0.0 mm 0.00 in0.0 mm
07:50 PM 60.3°F15.7°C 48.5°F9.2°C 65% 6.7 mph WSW10.8 kmh WSW 14.6 mph23.5 kmh 29.98 in1015.2 mb 0.00 in0.0 mm 0.00 in0.0 mm 0.00 in0.0 mm
07:55 PM 60.3°F15.7°C 48.5°F9.2°C 65% 8.6 mph WSW13.8 kmh WSW 14.6 mph23.5 kmh 29.98 in1015.2 mb 0.00 in0.0 mm 0.00 in0.0 mm 0.00 in0.0 mm
08:00 PM 60.3°F15.7°C 48.9°F9.4°C 66% 7.4 mph WSW11.9 kmh WSW 13.1 mph21.1 kmh 29.98 in1015.2 mb 0.00 in0.0 mm 0.00 in0.0 mm 0.00 in0.0 mm
08:05 PM 60.2°F15.7°C 48.8°F9.3°C 66% 6.1 mph WSW9.8 kmh WSW 9.8 mph15.8 kmh 29.98 in1015.2 mb 0.00 in0.0 mm 0.00 in0.0 mm 0.00 in0.0 mm
08:10 PM 60.2°F15.7°C 48.8°F9.3°C 66% 6.0 mph W9.7 kmh W 7.7 mph12.4 kmh 29.98 in1015.2 mb 0.00 in0.0 mm 0.00 in0.0 mm 0.00 in0.0 mm
08:15 PM 60.2°F15.7°C 48.8°F9.3°C 66% 8.3 mph WNW13.4 kmh WNW 11.3 mph18.2 kmh 29.98 in1015.2 mb 0.00 in0.0 mm 0.00 in0.0 mm 0.00 in0.0 mm
08:20 PM 60.0°F15.6°C 49.0°F9.4°C 67% 8.8 mph WNW14.2 kmh WNW 11.3 mph18.2 kmh 29.98 in1015.2 mb 0.00 in0.0 mm 0.00 in0.0 mm 0.00 in0.0 mm
08:25 PM 60.0°F15.6°C 49.0°F9.4°C 67% 5.8 mph W9.3 kmh W 10.4 mph16.7 kmh 29.98 in1015.2 mb 0.00 in0.0 mm 0.00 in0.0 mm 0.00 in0.0 mm
08:30 PM 60.0°F15.6°C 49.0°F9.4°C 67% 4.4 mph WNW7.1 kmh WNW 7.7 mph12.4 kmh 29.98 in1015.2 mb 0.00 in0.0 mm 0.00 in0.0 mm 0.00 in0.0 mm
08:35 PM 60.0°F15.6°C 49.4°F9.7°C 68% 4.6 mph NW7.4 kmh NW 7.7 mph12.4 kmh 29.98 in1015.2 mb 0.00 in0.0 mm 0.00 in0.0 mm 0.00 in0.0 mm
08:40 PM 59.8°F15.4°C 49.2°F9.6°C 68% 5.4 mph NW8.7 kmh NW 8.0 mph12.9 kmh 29.98 in1015.2 mb 0.00 in0.0 mm 0.00 in0.0 mm 0.00 in0.0 mm
08:45 PM 59.8°F15.4°C 49.6°F9.8°C 69% 5.0 mph WNW8.0 kmh WNW 8.0 mph12.9 kmh 29.98 in1015.2 mb 0.00 in0.0 mm 0.00 in0.0 mm 0.00 in0.0 mm
08:50 PM 59.8°F15.4°C 49.6°F9.8°C 69% 4.5 mph W7.2 kmh W 5.7 mph9.2 kmh 29.98 in1015.2 mb 0.00 in0.0 mm 0.00 in0.0 mm 0.00 in0.0 mm
08:55 PM 59.8°F15.4°C 49.6°F9.8°C 69% 5.3 mph W8.5 kmh W 6.5 mph10.5 kmh 29.98 in1015.2 mb 0.00 in0.0 mm 0.00 in0.0 mm 0.00 in0.0 mm
09:00 PM 59.8°F15.4°C 49.6°F9.8°C 69% 4.9 mph W7.9 kmh W 6.5 mph10.5 kmh 29.98 in1015.2 mb 0.00 in0.0 mm 0.00 in0.0 mm 0.00 in0.0 mm
09:05 PM 59.8°F15.4°C 49.6°F9.8°C 69% 5.5 mph W8.9 kmh W 9.5 mph15.3 kmh 29.98 in1015.2 mb 0.00 in0.0 mm 0.00 in0.0 mm 0.00 in0.0 mm
09:10 PM 59.8°F15.4°C 49.6°F9.8°C 69% 6.9 mph W11.1 kmh W 10.7 mph17.2 kmh 29.98 in1015.2 mb 0.00 in0.0 mm 0.00 in0.0 mm 0.00 in0.0 mm
09:15 PM 59.8°F15.4°C 49.6°F9.8°C 69% 6.1 mph W9.8 kmh W 10.7 mph17.2 kmh 29.98 in1015.2 mb 0.00 in0.0 mm 0.00 in0.0 mm 0.00 in0.0 mm
09:20 PM 59.8°F15.4°C 49.6°F9.8°C 69% 6.4 mph W10.3 kmh W 11.6 mph18.7 kmh 29.98 in1015.2 mb 0.00 in0.0 mm 0.00 in0.0 mm 0.00 in0.0 mm
09:25 PM 59.8°F15.4°C 50.0°F10.0°C 70% 7.0 mph W11.3 kmh W 11.6 mph18.7 kmh 29.98 in1015.2 mb 0.00 in0.0 mm 0.00 in0.0 mm 0.00 in0.0 mm
09:30 PM 59.8°F15.4°C 50.0°F10.0°C 70% 5.9 mph W9.5 kmh W 9.2 mph14.8 kmh 29.98 in1015.2 mb 0.00 in0.0 mm 0.00 in0.0 mm 0.00 in0.0 mm
09:35 PM 59.8°F15.4°C 50.4°F10.2°C 71% 5.2 mph WSW8.4 kmh WSW 8.3 mph13.4 kmh 29.98 in1015.2 mb 0.00 in0.0 mm 0.00 in0.0 mm 0.00 in0.0 mm
09:40 PM 59.8°F15.4°C 50.4°F10.2°C 71% 5.3 mph WSW8.5 kmh WSW 8.3 mph13.4 kmh 29.98 in1015.2 mb 0.00 in0.0 mm 0.00 in0.0 mm 0.00 in0.0 mm
09:45 PM 59.8°F15.4°C 50.4°F10.2°C 71% 5.2 mph WSW8.4 kmh WSW 8.3 mph13.4 kmh 29.98 in1015.2 mb 0.00 in0.0 mm 0.00 in0.0 mm 0.00 in0.0 mm
09:50 PM 59.8°F15.4°C 50.4°F10.2°C 71% 4.5 mph WSW7.2 kmh WSW 8.3 mph13.4 kmh 29.98 in1015.2 mb 0.00 in0.0 mm 0.00 in0.0 mm 0.00 in0.0 mm
09:55 PM 59.8°F15.4°C 50.8°F10.4°C 72% 4.8 mph WSW7.7 kmh WSW 7.4 mph11.9 kmh 29.98 in1015.2 mb 0.00 in0.0 mm 0.00 in0.0 mm 0.00 in0.0 mm
10:00 PM 59.8°F15.4°C 50.8°F10.4°C 72% 5.0 mph WSW8.0 kmh WSW 7.4 mph11.9 kmh 29.98 in1015.2 mb 0.00 in0.0 mm 0.00 in0.0 mm 0.00 in0.0 mm
10:05 PM 59.8°F15.4°C 50.8°F10.4°C 72% 4.3 mph W6.9 kmh W 6.5 mph10.5 kmh 29.98 in1015.2 mb 0.00 in0.0 mm 0.00 in0.0 mm 0.00 in0.0 mm
10:10 PM 59.8°F15.4°C 50.8°F10.4°C 72% 4.4 mph W7.1 kmh W 6.2 mph10.0 kmh 29.98 in1015.2 mb 0.00 in0.0 mm 0.00 in0.0 mm 0.00 in0.0 mm
10:15 PM 59.6°F15.3°C 51.0°F10.6°C 73% 3.9 mph SW6.3 kmh SW 6.2 mph10.0 kmh 29.98 in1015.2 mb 0.00 in0.0 mm 0.00 in0.0 mm 0.00 in0.0 mm
10:20 PM 59.6°F15.3°C 51.0°F10.6°C 73% 3.8 mph SSW6.1 kmh SSW 5.1 mph8.2 kmh 29.95 in1014.2 mb 0.00 in0.0 mm 0.00 in0.0 mm 0.00 in0.0 mm
10:25 PM 59.5°F15.3°C 51.2°F10.7°C 74% 3.9 mph SSW6.3 kmh SSW 5.4 mph8.7 kmh 29.95 in1014.2 mb 0.00 in0.0 mm 0.00 in0.0 mm 0.00 in0.0 mm
10:30 PM 59.5°F15.3°C 51.2°F10.7°C 74% 4.1 mph SSW6.6 kmh SSW 5.7 mph9.2 kmh 29.95 in1014.2 mb 0.00 in0.0 mm 0.00 in0.0 mm 0.00 in0.0 mm
10:35 PM 59.5°F15.3°C 51.2°F10.7°C 74% 4.1 mph SSW6.6 kmh SSW 5.7 mph9.2 kmh 29.95 in1014.2 mb 0.00 in0.0 mm 0.00 in0.0 mm 0.00 in0.0 mm
10:40 PM 59.3°F15.2°C 51.0°F10.6°C 74% 3.5 mph SSW5.6 kmh SSW 5.4 mph8.7 kmh 29.95 in1014.2 mb 0.00 in0.0 mm 0.00 in0.0 mm 0.00 in0.0 mm
10:45 PM 59.1°F15.1°C 50.8°F10.4°C 74% 2.8 mph SSW4.5 kmh SSW 4.2 mph6.8 kmh 29.95 in1014.2 mb 0.00 in0.0 mm 0.00 in0.0 mm 0.00 in0.0 mm
10:50 PM 59.1°F15.1°C 50.8°F10.4°C 74% 3.3 mph SSW5.3 kmh SSW 7.1 mph11.4 kmh 29.95 in1014.2 mb 0.00 in0.0 mm 0.00 in0.0 mm 0.00 in0.0 mm
10:55 PM 58.9°F14.9°C 50.6°F10.3°C 74% 4.3 mph SSW6.9 kmh SSW 7.1 mph11.4 kmh 29.95 in1014.2 mb 0.00 in0.0 mm 0.00 in0.0 mm 0.00 in0.0 mm
11:00 PM 58.9°F14.9°C 50.6°F10.3°C 74% 4.5 mph SSW7.2 kmh SSW 6.5 mph10.5 kmh 29.95 in1014.2 mb 0.00 in0.0 mm 0.00 in0.0 mm 0.00 in0.0 mm
11:05 PM 58.9°F14.9°C 50.6°F10.3°C 74% 5.6 mph SSW9.0 kmh SSW 7.4 mph11.9 kmh 29.95 in1014.2 mb 0.00 in0.0 mm 0.00 in0.0 mm 0.00 in0.0 mm
11:10 PM 58.7°F14.8°C 50.5°F10.3°C 74% 6.7 mph SSW10.8 kmh SSW 8.6 mph13.8 kmh 29.95 in1014.2 mb 0.00 in0.0 mm 0.00 in0.0 mm 0.00 in0.0 mm
11:15 PM 58.5°F14.7°C 50.3°F10.2°C 74% 6.4 mph S10.3 kmh S 8.6 mph13.8 kmh 29.95 in1014.2 mb 0.00 in0.0 mm 0.00 in0.0 mm 0.00 in0.0 mm
11:20 PM 58.5°F14.7°C 50.3°F10.2°C 74% 6.2 mph SSW10.0 kmh SSW 8.6 mph13.8 kmh 29.95 in1014.2 mb 0.00 in0.0 mm 0.00 in0.0 mm 0.00 in0.0 mm
11:25 PM 58.5°F14.7°C 50.3°F10.2°C 74% 8.1 mph SSW13.0 kmh SSW 14.3 mph23.0 kmh 29.95 in1014.2 mb 0.00 in0.0 mm 0.00 in0.0 mm 0.00 in0.0 mm
11:30 PM 58.4°F14.7°C 50.1°F10.1°C 74% 8.1 mph SSW13.0 kmh SSW 14.3 mph23.0 kmh 29.95 in1014.2 mb 0.00 in0.0 mm 0.00 in0.0 mm 0.00 in0.0 mm
11:35 PM 58.4°F14.7°C 50.1°F10.1°C 74% 6.0 mph SSW9.7 kmh SSW 11.6 mph18.7 kmh 29.92 in1013.2 mb 0.00 in0.0 mm 0.00 in0.0 mm 0.00 in0.0 mm
11:40 PM 58.4°F14.7°C 50.1°F10.1°C 74% 5.7 mph SSW9.2 kmh SSW 8.6 mph13.8 kmh 29.92 in1013.2 mb 0.00 in0.0 mm 0.00 in0.0 mm 0.00 in0.0 mm
11:45 PM 58.4°F14.7°C 50.1°F10.1°C 74% 5.4 mph SW8.7 kmh SW 9.5 mph15.3 kmh 29.92 in1013.2 mb 0.00 in0.0 mm 0.00 in0.0 mm 0.00 in0.0 mm
11:50 PM 58.4°F14.7°C 50.1°F10.1°C 74% 4.8 mph SW7.7 kmh SW 9.5 mph15.3 kmh 29.92 in1013.2 mb 0.00 in0.0 mm 0.00 in0.0 mm 0.00 in0.0 mm
11:55 PM 58.4°F14.7°C 50.1°F10.1°C 74% 4.6 mph SSW7.4 kmh SSW 6.2 mph10.0 kmh 29.92 in1013.2 mb 0.00 in0.0 mm 0.00 in0.0 mm 0.00 in0.0 mm